createdAt,value
2023-08-17T00:01:59.153Z,78.93
2023-08-17T00:05:03.029Z,78.95
2023-08-17T00:08:07.090Z,78.85
2023-08-17T00:11:10.356Z,78.92
2023-08-17T00:14:13.976Z,78.88
2023-08-17T00:17:16.756Z,78.35
2023-08-17T00:20:20.445Z,78.56
2023-08-17T00:23:24.272Z,78.82
2023-08-17T00:26:27.304Z,78.99
2023-08-17T00:29:30.702Z,79.84
2023-08-17T00:32:33.633Z,79.63
2023-08-17T00:35:36.544Z,80.00
2023-08-17T00:38:39.449Z,79.08
2023-08-17T00:41:42.510Z,79.28
2023-08-17T00:44:46.077Z,79.97
2023-08-17T00:47:49.610Z,78.71
2023-08-17T00:50:54.653Z,79.76
2023-08-17T00:54:00.754Z,79.37
2023-08-17T00:57:07.878Z,79.07
2023-08-17T01:00:16.376Z,79.26
2023-08-17T01:03:24.615Z,79.54
2023-08-17T01:06:27.667Z,80.56
2023-08-17T01:09:33.669Z,79.90
2023-08-17T01:13:06.657Z,79.91
2023-08-17T01:16:16.153Z,80.37
2023-08-17T01:19:27.251Z,81.02
2023-08-17T01:22:32.117Z,80.13
2023-08-17T01:25:38.138Z,80.15
2023-08-17T01:28:40.951Z,80.43
2023-08-17T01:31:55.316Z,80.73
2023-08-17T01:35:08.837Z,81.11
2023-08-17T01:38:17.828Z,80.51
2023-08-17T01:41:23.786Z,80.33
2023-08-17T01:44:27.305Z,80.50
2023-08-17T01:47:31.831Z,80.01
2023-08-17T01:50:34.742Z,81.09
2023-08-17T01:53:37.748Z,81.33
2023-08-17T01:56:41.036Z,80.39
2023-08-17T01:59:45.021Z,80.69
2023-08-17T02:02:48.046Z,80.86
2023-08-17T02:05:51.633Z,79.07
2023-08-17T02:08:54.534Z,80.53
2023-08-17T02:12:00.049Z,81.00
2023-08-17T02:15:03.500Z,81.91
2023-08-17T02:18:06.461Z,81.89
2023-08-17T02:21:10.601Z,82.30
2023-08-17T02:24:16.235Z,82.89
2023-08-17T02:27:19.133Z,82.15
2023-08-17T02:30:22.152Z,81.26
2023-08-17T02:33:25.761Z,81.63
2023-08-17T02:36:28.854Z,81.54
2023-08-17T02:39:32.762Z,81.83
2023-08-17T02:42:35.767Z,83.44
2023-08-17T02:45:38.608Z,82.15
2023-08-17T02:48:42.307Z,80.46
2023-08-17T02:51:45.588Z,82.24
2023-08-17T02:54:48.641Z,81.91
2023-08-17T02:57:52.148Z,82.10
2023-08-17T03:00:55.592Z,82.62
2023-08-17T03:03:59.175Z,83.48
2023-08-17T03:07:02.895Z,82.59
2023-08-17T03:10:07.126Z,83.08
2023-08-17T03:13:10.077Z,82.72
2023-08-17T03:16:13.020Z,81.79
2023-08-17T03:19:16.740Z,81.89
2023-08-17T03:22:21.276Z,81.43
2023-08-17T03:25:25.012Z,80.45
2023-08-17T03:28:28.733Z,81.38
2023-08-17T03:31:32.718Z,82.75
2023-08-17T03:34:38.481Z,82.19
2023-08-17T03:37:43.727Z,82.07
2023-08-17T03:40:50.800Z,81.14
2023-08-17T03:43:54.725Z,81.22
2023-08-17T03:46:58.223Z,80.39
2023-08-17T03:50:01.084Z,81.32
2023-08-17T03:53:04.196Z,80.23
2023-08-17T03:56:07.187Z,80.54
2023-08-17T03:59:10.694Z,80.79
2023-08-17T04:02:14.254Z,80.42
2023-08-17T04:05:18.409Z,80.43
2023-08-17T04:08:21.384Z,79.84
2023-08-17T04:11:24.379Z,79.78
2023-08-17T04:14:28.272Z,79.16
2023-08-17T04:17:32.399Z,78.21
2023-08-17T04:20:36.258Z,78.35
2023-08-17T04:23:40.483Z,79.23
2023-08-17T04:26:43.410Z,77.98
2023-08-17T04:29:47.216Z,77.46
2023-08-17T04:32:53.834Z,77.02
2023-08-17T04:35:57.199Z,77.10
2023-08-17T04:39:00.401Z,77.32
2023-08-17T04:42:05.212Z,77.73
2023-08-17T04:45:11.034Z,77.87
2023-08-17T04:48:17.481Z,77.79
2023-08-17T04:51:23.231Z,77.31
2023-08-17T04:54:26.826Z,76.66
2023-08-17T04:57:30.580Z,76.92
2023-08-17T05:00:34.796Z,76.96
2023-08-17T05:03:39.424Z,77.14
2023-08-17T05:06:44.270Z,76.59
2023-08-17T05:09:48.436Z,76.84
2023-08-17T05:12:51.478Z,76.99
2023-08-17T05:15:55.440Z,76.25
2023-08-17T05:19:00.690Z,75.73
2023-08-17T05:22:05.409Z,75.82
2023-08-17T05:25:09.253Z,76.04
2023-08-17T05:28:18.023Z,76.08
2023-08-17T05:31:22.213Z,75.50
2023-08-17T05:34:27.422Z,75.40
2023-08-17T05:37:31.356Z,75.52
2023-08-17T05:40:34.483Z,75.05
2023-08-17T05:43:38.040Z,74.93
2023-08-17T05:46:42.077Z,73.85
2023-08-17T05:49:45.256Z,73.15
2023-08-17T05:52:48.190Z,71.93
2023-08-17T05:55:51.209Z,70.83
2023-08-17T05:58:54.201Z,70.39
2023-08-17T06:01:57.144Z,70.19
2023-08-17T06:05:00.808Z,69.92
2023-08-17T06:08:04.667Z,70.05
2023-08-17T06:11:08.119Z,70.33
2023-08-17T06:14:12.072Z,71.11
2023-08-17T06:17:15.815Z,71.30
2023-08-17T06:20:19.811Z,71.93
2023-08-17T06:23:26.536Z,72.56
2023-08-17T06:26:30.165Z,68.44
2023-08-17T06:29:33.107Z,67.89
2023-08-17T06:32:36.112Z,67.44
2023-08-17T06:35:38.931Z,67.46
2023-08-17T06:38:43.571Z,67.84
2023-08-17T06:41:47.338Z,67.46
2023-08-17T06:44:51.096Z,67.35
2023-08-17T06:47:55.132Z,66.01
2023-08-17T06:50:58.116Z,67.17
2023-08-17T06:54:01.249Z,67.09
2023-08-17T06:57:04.378Z,65.38
2023-08-17T07:00:08.973Z,64.96
2023-08-17T07:03:14.772Z,63.06
2023-08-17T07:06:19.105Z,62.23
2023-08-17T07:09:22.363Z,61.43
2023-08-17T07:12:25.540Z,62.81
2023-08-17T07:15:28.436Z,63.34
2023-08-17T07:18:32.065Z,62.69
2023-08-17T07:21:35.490Z,62.11
2023-08-17T07:24:39.405Z,61.35
2023-08-17T07:27:43.443Z,60.59
2023-08-17T07:30:46.636Z,60.68
2023-08-17T07:33:49.965Z,59.61
2023-08-17T07:36:52.961Z,60.25
2023-08-17T07:39:56.040Z,59.97
2023-08-17T07:42:58.979Z,60.21
2023-08-17T07:46:01.986Z,59.86
2023-08-17T07:49:06.063Z,59.31
2023-08-17T07:52:11.781Z,58.91
2023-08-17T07:55:15.690Z,58.26
2023-08-17T07:58:18.646Z,57.62
2023-08-17T08:01:22.176Z,56.93
2023-08-17T08:04:25.329Z,57.02
2023-08-17T08:07:28.503Z,56.35
2023-08-17T08:10:31.764Z,56.84
2023-08-17T08:13:34.696Z,55.50
2023-08-17T08:16:38.103Z,55.95
2023-08-17T08:19:40.968Z,55.03
2023-08-17T08:22:44.785Z,53.33
2023-08-17T08:25:48.720Z,53.41
2023-08-17T08:28:52.175Z,52.14
2023-08-17T08:31:55.092Z,50.55
2023-08-17T08:34:58.738Z,50.50
2023-08-17T08:38:02.223Z,50.96
2023-08-17T08:41:06.687Z,49.83
2023-08-17T08:44:09.809Z,49.77
2023-08-17T08:47:14.728Z,47.67
2023-08-17T08:50:23.374Z,47.61
2023-08-17T08:53:36.770Z,47.66
2023-08-17T08:59:50.935Z,48.73
2023-08-17T09:02:55.395Z,48.78
2023-08-17T09:05:59.239Z,49.18
2023-08-17T09:09:03.871Z,49.37
2023-08-17T09:12:11.015Z,50.04
2023-08-17T09:15:14.064Z,49.79
2023-08-17T09:18:18.857Z,51.34
2023-08-17T09:21:24.653Z,50.25
2023-08-17T09:24:38.258Z,49.50
2023-08-17T09:27:42.697Z,49.55
2023-08-17T09:31:05.022Z,49.82
2023-08-17T09:34:10.617Z,49.53
2023-08-17T09:37:14.795Z,49.51
2023-08-17T09:40:22.380Z,48.72
2023-08-17T09:43:30.282Z,48.42
2023-08-17T09:46:34.548Z,48.40
2023-08-17T09:49:37.549Z,48.30
2023-08-17T09:52:41.183Z,47.94
2023-08-17T09:55:45.911Z,48.74
2023-08-17T09:58:49.897Z,48.99
2023-08-17T10:01:57.026Z,47.67
2023-08-17T10:05:01.760Z,47.85
2023-08-17T10:08:08.009Z,47.16
2023-08-17T10:11:13.405Z,48.43
2023-08-17T10:14:23.325Z,47.83
2023-08-17T10:17:29.402Z,47.47
2023-08-17T10:20:35.640Z,47.61
2023-08-17T10:23:42.778Z,48.48
2023-08-17T10:26:47.487Z,48.25
2023-08-17T10:29:53.318Z,47.59
2023-08-17T10:32:57.921Z,46.84
2023-08-17T10:36:02.569Z,46.75
2023-08-17T10:39:27.005Z,46.96
2023-08-17T10:42:37.909Z,47.28
2023-08-17T10:45:41.460Z,47.21
2023-08-17T10:48:45.616Z,47.75
2023-08-17T10:52:03.672Z,47.72
2023-08-17T10:55:11.421Z,48.43
2023-08-17T10:58:16.175Z,46.53
2023-08-17T11:01:38.096Z,46.20
2023-08-17T11:04:42.002Z,45.90
2023-08-17T11:07:46.196Z,45.57
2023-08-17T11:11:08.230Z,45.81
2023-08-17T11:14:11.335Z,46.23
2023-08-17T11:17:14.906Z,46.38
2023-08-17T11:20:18.066Z,46.61
2023-08-17T11:23:26.058Z,46.72
2023-08-17T11:26:35.482Z,47.26
2023-08-17T11:32:53.788Z,47.04
2023-08-17T11:36:03.216Z,46.71
2023-08-17T11:39:10.462Z,46.44
2023-08-17T11:42:20.166Z,45.86
2023-08-17T11:45:27.593Z,45.93
2023-08-17T11:48:36.681Z,46.61
2023-08-17T11:51:43.131Z,46.59
2023-08-17T11:54:46.915Z,46.12
2023-08-17T11:57:55.950Z,45.65
2023-08-17T12:00:59.001Z,46.05
2023-08-17T12:04:06.043Z,46.31
2023-08-17T12:07:11.024Z,45.74
2023-08-17T12:10:14.533Z,45.56
2023-08-17T12:13:17.541Z,45.45
2023-08-17T12:16:22.289Z,45.25
2023-08-17T12:19:28.830Z,43.81
2023-08-17T12:22:31.832Z,43.65
2023-08-17T12:25:35.558Z,43.65
2023-08-17T12:28:41.521Z,43.89
2023-08-17T12:31:45.795Z,43.15
2023-08-17T12:34:49.688Z,41.51
2023-08-17T12:37:55.124Z,39.88
2023-08-17T12:41:00.002Z,38.29
2023-08-17T12:44:03.619Z,38.37
2023-08-17T12:47:07.588Z,38.54
2023-08-17T12:50:11.528Z,39.70
2023-08-17T12:53:14.433Z,38.73
2023-08-17T12:56:17.598Z,36.45
2023-08-17T12:59:21.069Z,37.40
2023-08-17T13:02:25.259Z,38.33
2023-08-17T13:05:30.177Z,37.16
2023-08-17T13:08:33.272Z,35.28
2023-08-17T13:11:37.141Z,36.05
2023-08-17T13:14:40.498Z,34.07
2023-08-17T13:17:47.337Z,33.67
2023-08-17T13:20:50.380Z,35.31
2023-08-17T13:23:53.279Z,34.58
2023-08-17T13:26:58.777Z,35.27
2023-08-17T13:30:02.820Z,35.76
2023-08-17T13:33:07.674Z,37.66
2023-08-17T13:36:10.694Z,39.71
2023-08-17T13:39:14.639Z,41.52
2023-08-17T13:42:18.561Z,42.58
2023-08-17T13:45:22.308Z,38.44
2023-08-17T13:48:26.075Z,37.83
2023-08-17T13:51:29.740Z,38.79
2023-08-17T13:54:33.626Z,41.04
2023-08-17T13:57:37.391Z,41.82
2023-08-17T14:00:40.374Z,43.38
2023-08-17T14:03:44.556Z,44.73
2023-08-17T14:06:48.205Z,44.62
2023-08-17T14:10:05.525Z,44.69
2023-08-17T14:13:11.002Z,45.39
2023-08-17T14:16:14.734Z,45.30
2023-08-17T14:19:18.570Z,46.78
2023-08-17T14:22:21.416Z,51.00
2023-08-17T14:25:24.483Z,53.29
2023-08-17T14:28:27.898Z,57.07
2023-08-17T14:31:31.624Z,57.70
2023-08-17T14:34:34.923Z,60.85
2023-08-17T14:37:38.721Z,61.85
2023-08-17T14:40:46.279Z,60.38
2023-08-17T14:43:51.379Z,62.62
2023-08-17T14:46:54.256Z,63.48
2023-08-17T14:49:57.322Z,63.76
2023-08-17T14:53:00.321Z,63.76
2023-08-17T14:56:03.338Z,61.97
2023-08-17T14:59:10.447Z,63.36
2023-08-17T15:02:15.183Z,64.96
2023-08-17T15:05:18.231Z,65.56
2023-08-17T15:08:21.358Z,64.46
2023-08-17T15:11:24.643Z,69.99
2023-08-17T15:14:27.754Z,69.70
2023-08-17T15:17:30.671Z,68.03
2023-08-17T15:20:33.736Z,71.64
2023-08-17T15:23:37.335Z,74.32
2023-08-17T15:26:40.853Z,72.49
2023-08-17T15:29:43.910Z,72.99
2023-08-17T15:32:47.972Z,71.18
2023-08-17T15:35:51.750Z,69.57
2023-08-17T15:38:55.200Z,69.79
2023-08-17T15:41:59.494Z,68.79
2023-08-17T15:45:02.515Z,69.36
2023-08-17T15:48:05.619Z,69.30
2023-08-17T15:51:08.571Z,68.24
2023-08-17T15:54:14.382Z,70.38
2023-08-17T15:57:19.695Z,69.58
2023-08-17T16:00:23.714Z,67.03
2023-08-17T16:03:27.313Z,67.21
2023-08-17T16:06:30.821Z,67.79
2023-08-17T16:09:33.874Z,66.78
2023-08-17T16:12:42.924Z,68.35
2023-08-17T16:15:53.154Z,67.29
2023-08-17T16:18:56.283Z,69.57
2023-08-17T16:21:59.353Z,67.45
2023-08-17T16:25:02.968Z,66.96
2023-08-17T16:28:08.963Z,65.72
2023-08-17T16:31:14.160Z,68.75
2023-08-17T16:34:19.913Z,67.48
2023-08-17T16:37:23.041Z,67.94
2023-08-17T16:40:37.872Z,69.80
2023-08-17T16:43:42.074Z,69.57
2023-08-17T16:46:45.900Z,69.05
2023-08-17T16:49:48.840Z,69.50
2023-08-17T16:52:51.822Z,68.39
2023-08-17T16:55:55.837Z,68.69
2023-08-17T16:59:02.021Z,69.44
2023-08-17T17:02:07.015Z,70.17
2023-08-17T17:05:10.418Z,69.70
2023-08-17T17:08:13.371Z,68.42
2023-08-17T17:11:16.340Z,68.01
2023-08-17T17:14:19.563Z,68.13
2023-08-17T17:17:22.642Z,69.07
2023-08-17T17:20:25.718Z,69.07
2023-08-17T17:23:28.716Z,69.27
2023-08-17T17:26:31.603Z,68.86
2023-08-17T17:29:35.451Z,69.24
2023-08-17T17:32:38.526Z,70.07
2023-08-17T17:35:42.418Z,69.46
2023-08-17T17:38:46.083Z,69.95
2023-08-17T17:41:49.251Z,70.22
2023-08-17T17:44:52.292Z,70.82
2023-08-17T17:47:55.948Z,70.60
2023-08-17T17:50:58.860Z,70.61
2023-08-17T17:54:01.778Z,70.65
2023-08-17T17:57:06.072Z,70.20
2023-08-17T18:00:11.399Z,70.39
2023-08-17T18:03:19.706Z,69.63
2023-08-17T18:06:23.715Z,70.15
2023-08-17T18:09:27.751Z,70.96
2023-08-17T18:12:31.677Z,70.20
2023-08-17T18:15:36.686Z,70.54
2023-08-17T18:18:40.000Z,71.10
2023-08-17T18:21:43.457Z,71.35
2023-08-17T18:24:46.724Z,71.24
2023-08-17T18:27:49.971Z,71.72
2023-08-17T18:30:53.720Z,71.41
2023-08-17T18:33:57.708Z,71.21
2023-08-17T18:37:03.865Z,71.35
2023-08-17T18:40:08.092Z,71.67
2023-08-17T18:43:12.061Z,71.94
2023-08-17T18:46:15.292Z,72.09
2023-08-17T18:49:18.304Z,71.88
2023-08-17T18:52:21.183Z,72.14
2023-08-17T18:55:24.841Z,72.20
2023-08-17T18:58:28.484Z,72.50
2023-08-17T19:01:32.658Z,72.42
2023-08-17T19:04:36.748Z,72.19
2023-08-17T19:07:40.676Z,71.90
2023-08-17T19:10:43.657Z,72.06
2023-08-17T19:13:46.564Z,72.13
2023-08-17T19:16:49.921Z,71.98
2023-08-17T19:19:53.326Z,72.64
2023-08-17T19:22:57.131Z,71.99
2023-08-17T19:26:00.713Z,72.11
2023-08-17T19:29:04.040Z,72.39
2023-08-17T19:32:07.686Z,72.17
2023-08-17T19:35:11.188Z,72.53
2023-08-17T19:38:15.416Z,73.09
2023-08-17T19:41:19.146Z,73.30
2023-08-17T19:44:22.628Z,72.20
2023-08-17T19:47:25.666Z,72.20
2023-08-17T19:50:29.796Z,72.18
2023-08-17T19:53:32.747Z,72.09
2023-08-17T19:56:36.549Z,73.73
2023-08-17T19:59:40.248Z,73.38
2023-08-17T20:02:44.201Z,72.77
2023-08-17T20:05:48.338Z,72.40
2023-08-17T20:08:51.624Z,72.72
2023-08-17T20:11:56.023Z,72.79
2023-08-17T20:15:00.182Z,72.71
2023-08-17T20:18:03.577Z,72.65
2023-08-17T20:21:07.460Z,73.14
2023-08-17T20:24:11.240Z,73.19
2023-08-17T20:27:15.198Z,74.09
2023-08-17T20:30:18.756Z,73.11
2023-08-17T20:33:23.704Z,73.27
2023-08-17T20:36:27.286Z,73.04
2023-08-17T20:39:31.175Z,73.05
2023-08-17T20:42:34.027Z,74.94
2023-08-17T20:45:41.598Z,73.92
2023-08-17T20:48:44.608Z,73.58
2023-08-17T20:51:49.370Z,73.75
2023-08-17T20:54:53.280Z,73.65
2023-08-17T20:57:58.810Z,74.60
2023-08-17T21:01:01.985Z,74.30
2023-08-17T21:04:05.921Z,74.01
2023-08-17T21:07:08.959Z,74.04
2023-08-17T21:10:12.750Z,75.17
2023-08-17T21:13:16.215Z,76.13
2023-08-17T21:16:19.116Z,74.97
2023-08-17T21:19:22.041Z,75.41
2023-08-17T21:22:26.534Z,74.73
2023-08-17T21:25:30.301Z,75.66
2023-08-17T21:28:33.242Z,75.26
2023-08-17T21:31:36.359Z,76.15
2023-08-17T21:34:39.885Z,75.53
2023-08-17T21:37:44.373Z,75.72
2023-08-17T21:40:47.500Z,76.13
2023-08-17T21:43:53.396Z,76.62
2023-08-17T21:46:57.865Z,76.00
2023-08-17T21:50:01.328Z,76.88
2023-08-17T21:53:04.418Z,76.35
2023-08-17T21:56:07.289Z,76.57
2023-08-17T21:59:10.292Z,76.64
2023-08-17T22:02:13.183Z,76.50
2023-08-17T22:05:16.173Z,76.40
2023-08-17T22:08:19.870Z,75.84
2023-08-17T22:11:23.480Z,75.99
2023-08-17T22:14:27.361Z,76.55
2023-08-17T22:17:31.253Z,75.81
2023-08-17T22:20:36.027Z,75.80
2023-08-17T22:23:39.092Z,76.44
2023-08-17T22:26:42.795Z,75.74
2023-08-17T22:29:45.803Z,77.52
2023-08-17T22:32:49.369Z,76.97
2023-08-17T22:35:52.871Z,76.78
2023-08-17T22:38:55.766Z,76.97
2023-08-17T22:41:58.890Z,76.16
2023-08-17T22:45:01.663Z,75.96
2023-08-17T22:48:05.674Z,75.91
2023-08-17T22:51:10.455Z,75.51
2023-08-17T22:54:14.086Z,76.84
2023-08-17T22:57:17.387Z,75.65
2023-08-17T23:00:20.681Z,75.85
2023-08-17T23:03:23.791Z,75.45
2023-08-17T23:06:27.534Z,75.46
2023-08-17T23:09:30.330Z,74.83
2023-08-17T23:12:33.860Z,75.13
2023-08-17T23:15:36.645Z,75.59
2023-08-17T23:18:39.579Z,75.74
2023-08-17T23:21:42.428Z,75.97
2023-08-17T23:24:46.088Z,76.34
2023-08-17T23:27:48.942Z,75.79
2023-08-17T23:30:52.219Z,76.00
2023-08-17T23:33:55.092Z,75.94
2023-08-17T23:36:58.843Z,75.74
2023-08-17T23:40:01.772Z,76.62
2023-08-17T23:43:05.451Z,76.72
2023-08-17T23:46:09.478Z,76.49
2023-08-17T23:49:12.783Z,76.82
2023-08-17T23:52:15.667Z,76.53
2023-08-17T23:55:19.599Z,76.10
2023-08-17T23:58:23.767Z,76.33
